sensor_id;sensor_type;location;lat;lon;timestamp;pressure;altitude;pressure_sealevel;temperature;humidity
5679;BME280;2862;52.560;13.566;2023-02-16T00:03:50;101457.72;;;3.29;100.00
5679;BME280;2862;52.560;13.566;2023-02-16T00:13:55;101459.19;;;3.14;100.00
5679;BME280;2862;52.560;13.566;2023-02-16T00:23:58;101466.44;;;3.09;100.00
5679;BME280;2862;52.560;13.566;2023-02-16T00:34:26;101461.06;;;3.12;100.00
5679;BME280;2862;52.560;13.566;2023-02-16T00:44:32;101457.56;;;3.12;100.00
5679;BME280;2862;52.560;13.566;2023-02-16T00:54:40;101465.41;;;3.13;100.00
5679;BME280;2862;52.560;13.566;2023-02-16T01:04:43;101458.03;;;3.22;100.00
5679;BME280;2862;52.560;13.566;2023-02-16T01:14:50;101454.66;;;3.18;100.00
5679;BME280;2862;52.560;13.566;2023-02-16T01:24:56;101457.41;;;3.15;100.00
5679;BME280;2862;52.560;13.566;2023-02-16T01:35:00;101446.41;;;3.04;100.00
5679;BME280;2862;52.560;13.566;2023-02-16T01:45:08;101435.31;;;2.96;100.00
5679;BME280;2862;52.560;13.566;2023-02-16T01:55:17;101438.44;;;2.83;100.00
5679;BME280;2862;52.560;13.566;2023-02-16T02:05:24;101433.16;;;2.83;100.00
5679;BME280;2862;52.560;13.566;2023-02-16T02:15:40;101433.81;;;2.66;100.00
5679;BME280;2862;52.560;13.566;2023-02-16T02:36:27;101429.03;;;2.54;100.00
5679;BME280;2862;52.560;13.566;2023-02-16T02:46:33;101421.59;;;2.42;100.00
5679;BME280;2862;52.560;13.566;2023-02-16T02:56:40;101417.41;;;2.36;100.00
5679;BME280;2862;52.560;13.566;2023-02-16T03:07:03;101406.47;;;2.24;100.00
5679;BME280;2862;52.560;13.566;2023-02-16T03:17:12;101403.00;;;2.22;100.00
5679;BME280;2862;52.560;13.566;2023-02-16T03:27:35;101408.66;;;2.11;100.00
5679;BME280;2862;52.560;13.566;2023-02-16T03:37:59;101403.00;;;2.22;100.00
5679;BME280;2862;52.560;13.566;2023-02-16T03:48:03;101404.84;;;2.20;100.00
5679;BME280;2862;52.560;13.566;2023-02-16T03:58:08;101397.72;;;2.22;100.00
5679;BME280;2862;52.560;13.566;2023-02-16T04:08:12;101392.50;;;2.20;100.00
5679;BME280;2862;52.560;13.566;2023-02-16T04:18:16;101402.19;;;1.96;100.00
5679;BME280;2862;52.560;13.566;2023-02-16T04:28:19;101392.50;;;1.73;100.00
5679;BME280;2862;52.560;13.566;2023-02-16T04:38:24;101392.00;;;1.62;100.00
5679;BME280;2862;52.560;13.566;2023-02-16T04:48:28;101399.63;;;1.70;100.00
5679;BME280;2862;52.560;13.566;2023-02-16T04:58:32;101400.28;;;1.76;100.00
5679;BME280;2862;52.560;13.566;2023-02-16T05:08:35;101390.59;;;1.77;100.00
5679;BME280;2862;52.560;13.566;2023-02-16T05:18:40;101386.22;;;1.76;100.00
5679;BME280;2862;52.560;13.566;2023-02-16T05:28:43;101412.72;;;1.73;100.00
5679;BME280;2862;52.560;13.566;2023-02-16T05:38:47;101403.34;;;1.64;100.00
5679;BME280;2862;52.560;13.566;2023-02-16T05:48:51;101399.44;;;1.51;100.00
5679;BME280;2862;52.560;13.566;2023-02-16T05:58:57;101397.53;;;1.54;100.00
5679;BME280;2862;52.560;13.566;2023-02-16T06:08:59;101413.53;;;1.50;100.00
5679;BME280;2862;52.560;13.566;2023-02-16T06:19:05;101407.34;;;1.51;100.00
5679;BME280;2862;52.560;13.566;2023-02-16T06:29:09;101421.22;;;1.56;100.00
5679;BME280;2862;52.560;13.566;2023-02-16T06:39:13;101421.69;;;1.67;100.00
5679;BME280;2862;52.560;13.566;2023-02-16T06:49:18;101420.22;;;1.83;100.00
5679;BME280;2862;52.560;13.566;2023-02-16T06:59:23;101434.41;;;2.28;100.00
5679;BME280;2862;52.560;13.566;2023-02-16T07:09:26;101427.53;;;2.92;97.49
5679;BME280;2862;52.560;13.566;2023-02-16T07:19:31;101425.63;;;3.79;93.07
5679;BME280;2862;52.560;13.566;2023-02-16T07:29:34;101411.16;;;5.36;95.71
5679;BME280;2862;52.560;13.566;2023-02-16T07:39:38;101407.44;;;5.57;83.82
5679;BME280;2862;52.560;13.566;2023-02-16T07:49:41;101399.66;;;4.83;87.02
5679;BME280;2862;52.560;13.566;2023-02-16T07:59:45;101406.09;;;5.14;85.50
5679;BME280;2862;52.560;13.566;2023-02-16T08:09:48;101416.78;;;5.47;83.56
5679;BME280;2862;52.560;13.566;2023-02-16T08:19:52;101428.47;;;5.77;81.77
5679;BME280;2862;52.560;13.566;2023-02-16T08:29:55;101414.34;;;6.27;80.14
5679;BME280;2862;52.560;13.566;2023-02-16T08:39:59;101420.22;;;6.50;78.36
5679;BME280;2862;52.560;13.566;2023-02-16T08:50:03;101411.03;;;6.87;77.41
5679;BME280;2862;52.560;13.566;2023-02-16T09:00:08;101401.38;;;7.46;74.33
5679;BME280;2862;52.560;13.566;2023-02-16T09:10:29;101399.34;;;7.80;73.12
5679;BME280;2862;52.560;13.566;2023-02-16T09:20:35;101393.75;;;8.27;71.49
5679;BME280;2862;52.560;13.566;2023-02-16T09:30:40;101398.22;;;8.82;69.04
5679;BME280;2862;52.560;13.566;2023-02-16T09:40:44;101399.47;;;9.18;67.10
5679;BME280;2862;52.560;13.566;2023-02-16T09:50:49;101398.25;;;9.49;66.43
5679;BME280;2862;52.560;13.566;2023-02-16T10:01:01;101383.41;;;9.57;65.26
5679;BME280;2862;52.560;13.566;2023-02-16T10:11:11;101391.53;;;9.94;64.72
5679;BME280;2862;52.560;13.566;2023-02-16T10:21:30;101379.78;;;10.35;63.31
5679;BME280;2862;52.560;13.566;2023-02-16T10:31:37;101384.47;;;10.31;61.49
5679;BME280;2862;52.560;13.566;2023-02-16T10:41:47;101381.06;;;10.29;62.02
5679;BME280;2862;52.560;13.566;2023-02-16T10:51:53;101361.84;;;10.61;60.82
5679;BME280;2862;52.560;13.566;2023-02-16T11:02:00;101353.88;;;10.96;61.11
5679;BME280;2862;52.560;13.566;2023-02-16T11:12:24;101342.16;;;10.86;59.44
5679;BME280;2862;52.560;13.566;2023-02-16T11:22:32;101343.13;;;10.85;59.94
5679;BME280;2862;52.560;13.566;2023-02-16T11:32:36;101335.97;;;10.85;58.52
5679;BME280;2862;52.560;13.566;2023-02-16T11:42:44;101337.06;;;10.94;58.94
5679;BME280;2862;52.560;13.566;2023-02-16T11:52:51;101323.03;;;10.79;59.60
5679;BME280;2862;52.560;13.566;2023-02-16T12:03:20;101313.06;;;10.81;58.79
5679;BME280;2862;52.560;13.566;2023-02-16T12:13:36;101308.16;;;10.99;59.01
5679;BME280;2862;52.560;13.566;2023-02-16T12:23:55;101299.19;;;11.11;58.17
5679;BME280;2862;52.560;13.566;2023-02-16T12:34:06;101293.00;;;11.11;57.71
5679;BME280;2862;52.560;13.566;2023-02-16T12:44:29;101283.28;;;11.21;57.40
5679;BME280;2862;52.560;13.566;2023-02-16T12:54:37;101275.91;;;11.36;57.45
5679;BME280;2862;52.560;13.566;2023-02-16T13:04:47;101276.28;;;11.42;57.17
5679;BME280;2862;52.560;13.566;2023-02-16T13:15:00;101258.50;;;11.41;56.75
5679;BME280;2862;52.560;13.566;2023-02-16T13:25:25;101250.84;;;11.59;56.11
5679;BME280;2862;52.560;13.566;2023-02-16T13:35:54;101256.31;;;12.03;55.73
5679;BME280;2862;52.560;13.566;2023-02-16T13:46:05;101256.25;;;11.93;55.49
5679;BME280;2862;52.560;13.566;2023-02-16T13:56:14;101251.25;;;11.88;55.53
5679;BME280;2862;52.560;13.566;2023-02-16T14:06:36;101249.13;;;12.03;55.61
5679;BME280;2862;52.560;13.566;2023-02-16T14:16:40;101249.88;;;11.72;59.43
5679;BME280;2862;52.560;13.566;2023-02-16T14:26:54;101250.00;;;11.48;58.24
5679;BME280;2862;52.560;13.566;2023-02-16T14:37:24;101241.47;;;11.54;58.37
5679;BME280;2862;52.560;13.566;2023-02-16T14:47:36;101244.66;;;11.59;58.43
5679;BME280;2862;52.560;13.566;2023-02-16T14:57:49;101238.44;;;11.47;59.37
5679;BME280;2862;52.560;13.566;2023-02-16T15:08:01;101228.44;;;11.38;60.64
5679;BME280;2862;52.560;13.566;2023-02-16T15:18:05;101230.50;;;11.34;60.40
5679;BME280;2862;52.560;13.566;2023-02-16T15:28:17;101229.16;;;11.40;59.36
5679;BME280;2862;52.560;13.566;2023-02-16T15:38:24;101223.91;;;11.27;59.89
5679;BME280;2862;52.560;13.566;2023-02-16T15:48:30;101226.22;;;11.09;60.11
5679;BME280;2862;52.560;13.566;2023-02-16T15:58:34;101222.91;;;11.06;61.11
5679;BME280;2862;52.560;13.566;2023-02-16T16:08:38;101217.78;;;10.92;61.64
5679;BME280;2862;52.560;13.566;2023-02-16T16:18:44;101188.78;;;10.74;61.94
5679;BME280;2862;52.560;13.566;2023-02-16T16:28:49;101201.13;;;10.53;62.55
5679;BME280;2862;52.560;13.566;2023-02-16T16:39:07;101188.69;;;10.41;63.16
5679;BME280;2862;52.560;13.566;2023-02-16T16:49:14;101188.97;;;10.25;63.76
5679;BME280;2862;52.560;13.566;2023-02-16T16:59:17;101168.78;;;10.21;63.92
5679;BME280;2862;52.560;13.566;2023-02-16T17:09:22;101177.50;;;10.23;64.01
5679;BME280;2862;52.560;13.566;2023-02-16T17:19:25;101169.56;;;10.10;64.13
5679;BME280;2862;52.560;13.566;2023-02-16T17:29:31;101177.56;;;10.10;64.67
5679;BME280;2862;52.560;13.566;2023-02-16T17:39:34;101184.84;;;10.08;65.13
5679;BME280;2862;52.560;13.566;2023-02-16T17:49:38;101183.25;;;10.05;65.67
5679;BME280;2862;52.560;13.566;2023-02-16T17:59:41;101186.59;;;9.96;66.49
5679;BME280;2862;52.560;13.566;2023-02-16T18:09:46;101181.69;;;9.90;67.25
5679;BME280;2862;52.560;13.566;2023-02-16T18:19:49;101189.44;;;9.82;68.08
5679;BME280;2862;52.560;13.566;2023-02-16T18:29:53;101176.84;;;9.71;68.94
5679;BME280;2862;52.560;13.566;2023-02-16T18:39:56;101175.47;;;9.66;69.52
5679;BME280;2862;52.560;13.566;2023-02-16T18:50:00;101179.19;;;9.63;69.40
5679;BME280;2862;52.560;13.566;2023-02-16T19:00:03;101172.72;;;9.54;69.62
5679;BME280;2862;52.560;13.566;2023-02-16T19:10:09;101173.91;;;9.50;69.61
5679;BME280;2862;52.560;13.566;2023-02-16T19:20:12;101158.44;;;9.43;69.56
5679;BME280;2862;52.560;13.566;2023-02-16T19:30:19;101174.56;;;9.41;69.43
5679;BME280;2862;52.560;13.566;2023-02-16T19:40:24;101176.03;;;9.45;69.46
5679;BME280;2862;52.560;13.566;2023-02-16T19:50:29;101185.25;;;9.41;69.18
5679;BME280;2862;52.560;13.566;2023-02-16T20:00:31;101176.28;;;9.42;69.29
5679;BME280;2862;52.560;13.566;2023-02-16T20:10:41;101168.47;;;9.52;68.95
5679;BME280;2862;52.560;13.566;2023-02-16T20:20:56;101168.97;;;9.57;68.80
5679;BME280;2862;52.560;13.566;2023-02-16T20:31:01;101167.25;;;9.56;69.18
5679;BME280;2862;52.560;13.566;2023-02-16T20:41:04;101152.13;;;9.44;69.53
5679;BME280;2862;52.560;13.566;2023-02-16T20:51:10;101151.94;;;9.47;71.74
5679;BME280;2862;52.560;13.566;2023-02-16T21:01:16;101153.44;;;9.38;75.17
5679;BME280;2862;52.560;13.566;2023-02-16T21:11:22;101147.78;;;9.17;78.63
5679;BME280;2862;52.560;13.566;2023-02-16T21:21:26;101136.16;;;9.05;78.94
5679;BME280;2862;52.560;13.566;2023-02-16T21:31:31;101119.22;;;8.94;79.63
5679;BME280;2862;52.560;13.566;2023-02-16T21:41:34;101100.25;;;8.86;79.51
5679;BME280;2862;52.560;13.566;2023-02-16T21:51:39;101103.75;;;8.86;79.19
5679;BME280;2862;52.560;13.566;2023-02-16T22:01:46;101095.47;;;8.78;79.08
5679;BME280;2862;52.560;13.566;2023-02-16T22:11:53;101085.22;;;8.72;79.56
5679;BME280;2862;52.560;13.566;2023-02-16T22:21:56;101074.97;;;8.66;79.75
5679;BME280;2862;52.560;13.566;2023-02-16T22:32:00;101066.34;;;8.49;80.28
5679;BME280;2862;52.560;13.566;2023-02-16T22:42:03;101068.34;;;8.46;81.39
5679;BME280;2862;52.560;13.566;2023-02-16T22:52:07;101065.28;;;8.39;82.28
5679;BME280;2862;52.560;13.566;2023-02-16T23:02:11;101065.81;;;8.44;82.68
5679;BME280;2862;52.560;13.566;2023-02-16T23:12:16;101048.84;;;8.45;83.40
5679;BME280;2862;52.560;13.566;2023-02-16T23:22:19;101045.31;;;8.32;84.47
5679;BME280;2862;52.560;13.566;2023-02-16T23:32:23;101046.16;;;8.33;84.60
5679;BME280;2862;52.560;13.566;2023-02-16T23:42:27;101040.59;;;8.23;85.98
5679;BME280;2862;52.560;13.566;2023-02-16T23:52:32;101036.34;;;8.33;85.75
